Adelphi, OH

2:14 AM EDT on October 25, 2014 (GMT -0400)
Rock House State Park area | Change Station
CLOSE
Current Station
Personal Weather Station
Location: Laurelville, OH
Elevation: 1086 ft
Nearby Weather Stations

Elev 1086 ft 39.48 °N, 82.66 °W | Updated 4 seconds ago

Partly Cloudy
Partly Cloudy
48.1 °F
Feels Like 48 °F
N
0.0
Wind Variable Wind from SW
Gusts 2.0 mph

Today
High -- | Low -- °F
--% Chance of Precip.
Yesterday
High -- | Low -- °F
Precip. -- in
7:51 AM 6:38 PM
New Moon, 2% visible
Pressure 30.02 in
Visibility 9.0 miles
Clouds Few 4100 ft
Windchill 48 °F
Dew Point 40 °F
Humidity 74%
Rainfall 0.00 in
Snow Depth Not available.
UV 0 out of 12
Pollen 1.40 out of 12
Air Quality Not available.
Flu Activity Sporadic
METAR KLHQ 250553Z AUTO 14003KT 9SM FEW041 04/03 A3002 RMK AO2 SLP166 T00440033 10083 20039 58005

More Conditions Fewer Conditions

Pressure 30.02 in
Visibility 9.0 miles
Clouds Few 4100 ft
Windchill 48 °F
Dew Point 40 °F
Humidity 74%
Rainfall 0.00 in
Snow Depth Not available.
UV 0 out of 12
Pollen 1.40 out of 12
Air Quality Not available.
Flu Activity Sporadic
METAR KLHQ 250553Z AUTO 14003KT 9SM FEW041 04/03 A3002 RMK AO2 SLP166 T00440033 10083 20039 58005

More Conditions Fewer Conditions

10-Day Weather Forecast

Almanac

Astronomy

Oct. 25, 2014 Rise Set
Actual Time 7:51 AM EDT 6:38 PM EDT
Civil Twilight 7:23 AM EDT 7:05 PM EDT
Nautical Twilight 6:52 AM EDT 7:36 PM EDT
Astronomical Twilight 6:21 AM EDT 8:08 PM EDT
Moon 9:28 AM EDT 8:00 PM EDT
Length of Visible Light 11h 41m
Length of Day
10h 46m
Tomorrow will be 2m 21s shorter.
New Moon, 2% of the Moon is Illuminated
Today
New Moon
Oct 30
First Quarter
Nov 6
Full
Nov 14
Last Quarter
Nov 22
New

Today's Extremes

State Highs State Lows

Community

WunderPhotos

Upload Photos

1,764,785 photos uploaded!

Nearby

Snow Depth

Station Depth Elevation
No new snow has been reported.

Earthquake Activity

City Distance Mag. Time & Date
No recent earthquake activity has been reported nearby.
Minimum magnitude displayed is 2.5.

Coastal Water Temperatures

Place Temperature
No Stations Reporting

Nearby Weather Stations